| time (UTC) | temp C | wind direction | speed KPH | gust KPH | rain 1hr cm | rain 24hr cm | rain mn cm | humidity % | barometer mb |
| 20260901081512 | 10 | 223 | 0.0 | 0.0 | 0.00 | 0.30 | 0.03 | 96 | 1029.1 |
| 20260901080017 | 10 | 243 | 0.0 | 0.0 | 0.00 | 0.30 | 0.03 | 98 | 1029.2 |
| 20260901074532 | 10 | 243 | 0.0 | 0.0 | 0.00 | 0.30 | 0.03 | 98 | 1029.6 |
| 20260901073038 | 10 | 204 | 0.0 | 0.0 | 0.00 | 0.30 | 0.03 | 98 | 1029.7 |
| 20260901071509 | 10 | 331 | 0.0 | 0.0 | 0.03 | 0.30 | 0.03 | 98 | 1029.6 |
| 20260901070003 | 10 | 331 | 0.0 | 0.0 | 0.03 | 0.30 | 0.03 | 98 | 1029.6 |
| 20260901064504 | 10 | 331 | 0.0 | 0.0 | 0.03 | 0.30 | 0.03 | 98 | 1029.7 |
| 20260901063013 | 10 | 331 | 0.0 | 0.0 | 0.03 | 0.30 | 0.03 | 98 | 1029.9 |
| 20260901061504 | 10 | 331 | 0.0 | 0.0 | 0.00 | 0.28 | 0.00 | 97 | 1029.9 |
| 20260901060011 | 10 | 331 | 0.0 | 0.0 | 0.00 | 0.28 | 0.00 | 97 | 1030.0 |
| 20260901054514 | 10 | 331 | 0.0 | 0.0 | 0.03 | 0.28 | 0.28 | 97 | 1030.0 |
| 20260901053003 | 10 | 331 | 0.0 | 0.0 | 0.03 | 0.28 | 0.28 | 97 | 1030.1 |
| 20260901051514 | 10 | 331 | 0.0 | 0.0 | 0.03 | 0.28 | 0.28 | 97 | 1030.5 |
| 20260901050009 | 10 | 331 | 0.0 | 0.0 | 0.03 | 0.28 | 0.28 | 96 | 1030.7 |
| 20260901044517 | 10 | 331 | 0.0 | 0.0 | 0.00 | 0.25 | 0.25 | 96 | 1030.9 |
| 20260901043022 | 10 | 331 | 0.0 | 0.0 | 0.03 | 0.25 | 0.25 | 96 | 1031.0 |
| 20260901041504 | 10 | 349 | 0.0 | 0.0 | 0.03 | 0.25 | 0.25 | 96 | 1031.2 |
| 20260901040017 | 10 | 349 | 0.0 | 0.0 | 0.05 | 0.25 | 0.25 | 94 | 1031.6 |
| 20260901034508 | 10 | 196 | 0.0 | 0.0 | 0.08 | 0.25 | 0.25 | 94 | 1031.7 |
| 20260901033018 | 10 | 196 | 0.0 | 0.0 | 0.08 | 0.23 | 0.23 | 93 | 1031.8 |
| 20260901031526 | 10 | 220 | 0.0 | 0.0 | 0.10 | 0.23 | 0.23 | 90 | 1031.9 |
| 20260901030007 | 11 | 266 | 0.0 | 3.2 | 0.10 | 0.20 | 0.20 | 90 | 1031.8 |
| 20260901024508 | 11 | 247 | 0.0 | 0.0 | 0.13 | 0.18 | 0.18 | 93 | 1031.6 |
| 20260901023020 | 11 | 248 | 0.0 | 1.6 | 0.15 | 0.15 | 0.15 | 91 | 1031.4 |
| 20260901021525 | 11 | 231 | 0.0 | 4.8 | 0.13 | 0.13 | 0.13 | 87 | 1031.3 |
| 20260901020027 | 11 | 203 | 1.6 | 11.3 | 0.10 | 0.10 | 0.10 | 85 | 1031.3 |
| 20260901014518 | 11 | 200 | 6.4 | 17.7 | 0.05 | 0.05 | 0.05 | 82 | 1031.2 |
| 20260901013012 | 12 | 219 | 9.7 | 35.4 | 0.00 | 0.00 | 0.00 | 78 | 1031.0 |
| 20260901011525 | 16 | 245 | 0.0 | 1.6 | 0.00 | 0.00 | 0.00 | 66 | 1029.8 |
| 20260901010023 | 16 | 274 | 0.0 | 0.0 | 0.00 | 0.00 | 0.00 | 59 | 1029.6 |
| 20260901004531 | 17 | 274 | 0.0 | 1.6 | 0.00 | 0.00 | 0.00 | 56 | 1029.8 |
| 20260901003010 | 17 | 274 | 0.0 | 0.0 | 0.00 | 0.00 | 0.00 | 54 | 1030.0 |
| 20260901001503 | 17 | 328 | 0.0 | 3.2 | 0.00 | 0.00 | 0.00 | 54 | 1029.9 |
| 20260901000004 | 17 | 282 | 0.0 | 3.2 | 0.00 | 0.00 | 0.00 | 52 | 1029.8 |
| 20260831234505 | 17 | 279 | 0.0 | 6.4 | 0.00 | 0.00 | 0.00 | 53 | 1029.6 |
| 20260831233006 | 17 | 271 | 1.6 | 8.0 | 0.00 | 0.00 | 0.00 | 51 | 1029.7 |
| 20260831231532 | 18 | 248 | 1.6 | 14.5 | 0.00 | 0.00 | 0.00 | 49 | 1029.9 |
| 20260831230034 | 18 | 291 | 4.8 | 12.9 | 0.00 | 0.00 | 0.00 | 49 | 1029.8 |
| 20260831224503 | 18 | 299 | 6.4 | 14.5 | 0.00 | 0.00 | 0.00 | 46 | 1029.8 |
| 20260831223004 | 18 | 242 | 6.4 | 17.7 | 0.00 | 0.00 | 0.00 | 44 | 1029.5 |
| 20260831221533 | 18 | 276 | 6.4 | 20.9 | 0.00 | 0.00 | 0.00 | 43 | 1029.7 |
| 20260831220034 | 20 | 284 | 3.2 | 16.1 | 0.00 | 0.00 | 0.00 | 49 | 1029.6 |
| 20260831214531 | 19 | 266 | 9.7 | 19.3 | 0.00 | 0.00 | 0.00 | 49 | 1030.0 |
| 20260831213024 | 19 | 271 | 4.8 | 20.9 | 0.00 | 0.00 | 0.00 | 47 | 1030.0 |
| 20260831211504 | 18 | 247 | 9.7 | 17.7 | 0.00 | 0.00 | 0.00 | 51 | 1030.4 |
| 20260831210009 | 18 | 249 | 4.8 | 17.7 | 0.00 | 0.00 | 0.00 | 52 | 1030.9 |
| 20260831204520 | 18 | 258 | 11.3 | 19.3 | 0.00 | 0.03 | 0.00 | 51 | 1031.1 |
| 20260831203025 | 17 | 285 | 9.7 | 19.3 | 0.00 | 0.13 | 0.00 | 52 | 1031.2 |
| 20260831201527 | 17 | 263 | 6.4 | 20.9 | 0.00 | 0.18 | 0.00 | 52 | 1031.4 |
| 20260831200011 | 17 | 255 | 9.7 | 24.1 | 0.00 | 0.20 | 0.00 | 53 | 1031.4 |
| 20260831194513 | 17 | 228 | 11.3 | 22.5 | 0.00 | 0.20 | 0.00 | 53 | 1031.5 |
| 20260831193018 | 17 | 221 | 11.3 | 20.9 | 0.00 | 0.20 | 0.00 | 53 | 1031.5 |
| 20260831191523 | 17 | 236 | 8.0 | 17.7 | 0.00 | 0.20 | 0.00 | 57 | 1031.6 |
| 20260831190029 | 17 | 299 | 11.3 | 22.5 | 0.00 | 0.20 | 0.00 | 58 | 1031.7 |
| 20260831184510 | 17 | 239 | 8.0 | 14.5 | 0.00 | 0.20 | 0.00 | 59 | 1031.7 |
| 20260831183035 | 16 | 208 | 6.4 | 17.7 | 0.00 | 0.20 | 0.00 | 63 | 1031.9 |
| 20260831181520 | 15 | 242 | 4.8 | 12.9 | 0.00 | 0.20 | 0.00 | 65 | 1032.1 |
| 20260831180036 | 15 | 201 | 8.0 | 20.9 | 0.00 | 0.20 | 0.00 | 65 | 1032.2 |
| 20260831174506 | 15 | 212 | 11.3 | 19.3 | 0.00 | 0.23 | 0.00 | 64 | 1032.2 |
| 20260831173038 | 15 | 221 | 6.4 | 12.9 | 0.00 | 0.23 | 0.00 | 65 | 1032.0 |
| 20260831171523 | 15 | 248 | 6.4 | 14.5 | 0.00 | 0.23 | 0.00 | 65 | 1031.8 |
| 20260831170029 | 15 | 237 | 9.7 | 20.9 | 0.00 | 0.23 | 0.00 | 65 | 1031.9 |
| 20260831164532 | 15 | 213 | 4.8 | 12.9 | 0.00 | 0.23 | 0.00 | 66 | 1031.6 |
| 20260831163045 | 14 | 224 | 1.6 | 12.9 | 0.00 | 0.23 | 0.00 | 66 | 1031.6 |
| 20260831161535 | 13 | 233 | 6.4 | 12.9 | 0.00 | 0.23 | 0.00 | 67 | 1031.5 |
| 20260831160019 | 13 | 223 | 4.8 | 16.1 | 0.00 | 0.23 | 0.00 | 68 | 1031.4 |
| 20260831154553 | 12 | 153 | 3.2 | 19.3 | 0.00 | 0.23 | 0.00 | 70 | 1031.4 |
| 20260831153035 | 12 | 178 | 6.4 | 9.7 | 0.00 | 0.23 | 0.00 | 73 | 1031.4 |
| 20260831151538 | 11 | 181 | 8.0 | 12.9 | 0.00 | 0.23 | 0.00 | 80 | 1031.3 |
| 20260831150015 | 7 | 147 | 3.2 | 4.8 | 0.00 | 0.23 | 0.00 | 95 | 1031.4 |
| 20260831144502 | 5 | 52 | 0.0 | 0.0 | 0.00 | 0.23 | 0.00 | 96 | 1031.2 |
| 20260831143002 | 4 | 52 | 0.0 | 0.0 | 0.00 | 0.23 | 0.00 | 96 | 1031.1 |
| 20260831141503 | 3 | 52 | 0.0 | 0.0 | 0.00 | 0.23 | 0.00 | 96 | 1030.8 |
| 20260831140005 | 3 | 52 | 0.0 | 0.0 | 0.00 | 0.23 | 0.00 | 97 | 1030.7 |
| 20260831134502 | 2 | 52 | 0.0 | 0.0 | 0.00 | 0.25 | 0.00 | 97 | 1030.6 |
| 20260831133003 | 2 | 52 | 0.0 | 0.0 | 0.00 | 0.25 | 0.00 | 97 | 1030.6 |
| 20260831131503 | 2 | 52 | 0.0 | 0.0 | 0.00 | 0.25 | 0.00 | 97 | 1030.4 |
| 20260831130002 | 2 | 53 | 0.0 | 0.0 | 0.00 | 0.25 | 0.00 | 97 | 1030.3 |
| 20260831124503 | 2 | 53 | 0.0 | 0.0 | 0.00 | 0.25 | 0.00 | 96 | 1030.1 |
| 20260831123002 | 2 | 53 | 0.0 | 0.0 | 0.00 | 0.25 | 0.00 | 96 | 1030.1 |
| 20260831121505 | 2 | 20 | 0.0 | 0.0 | 0.00 | 0.25 | 0.00 | 96 | 1030.1 |
| 20260831120006 | 2 | 20 | 0.0 | 0.0 | 0.00 | 0.25 | 0.00 | 96 | 1030.0 |
| 20260831114506 | 2 | 20 | 0.0 | 0.0 | 0.00 | 0.25 | 0.00 | 96 | 1029.8 |
| 20260831113004 | 2 | 349 | 0.0 | 0.0 | 0.00 | 0.25 | 0.00 | 96 | 1029.7 |
| 20260831111503 | 2 | 98 | 0.0 | 1.6 | 0.00 | 0.25 | 0.00 | 95 | 1029.6 |
| 20260831110004 | 2 | 20 | 0.0 | 1.6 | 0.00 | 0.25 | 0.00 | 95 | 1029.5 |
| 20260831104503 | 3 | 120 | 0.0 | 0.0 | 0.00 | 0.25 | 0.00 | 95 | 1029.4 |
| 20260831103004 | 3 | 119 | 0.0 | 0.0 | 0.00 | 0.25 | 0.00 | 93 | 1029.6 |
| 20260831101504 | 3 | 119 | 0.0 | 1.6 | 0.00 | 0.25 | 0.00 | 94 | 1029.4 |
| 20260831100004 | 4 | 119 | 0.0 | 0.0 | 0.00 | 0.25 | 0.00 | 93 | 1029.4 |
| 20260831094504 | 5 | 119 | 0.0 | 1.6 | 0.00 | 0.25 | 0.00 | 90 | 1029.2 |
| 20260831093004 | 5 | 83 | 0.0 | 0.0 | 0.00 | 0.25 | 0.00 | 91 | 1029.0 |
| 20260831091504 | 6 | 233 | 0.0 | 8.0 | 0.00 | 0.25 | 0.00 | 91 | 1028.9 |
| 20260831090003 | 3 | 79 | 0.0 | 3.2 | 0.00 | 0.25 | 0.00 | 94 | 1029.4 |
| 20260831084504 | 4 | 71 | 0.0 | 1.6 | 0.00 | 0.25 | 0.00 | 94 | 1029.2 |
| 20260831083006 | 4 | 13 | 0.0 | 0.0 | 0.00 | 0.25 | 0.00 | 93 | 1029.3 |